Terminal Aerodrome Forecast
Issued by NWS

Home | Current Version | Previous Version | Text Only | Print | Product List | Glossary On
Versions: 1 2 3 4 5 6 7 8 9 10 11 12 13 14 15 16 17 18 19 20 21 22 23
000
FTUS41 KPHI 301137
TAFMIV
TAF
KMIV 301137Z 3012/0112 06015G25KT P6SM -RA OVC012
      TEMPO 3012/3015 2SM RADZ BR BKN007 OVC015
     FM301500 05012G22KT P6SM OVC009
     FM010000 04009KT P6SM OVC007=

USA.gov is the U.S. government's official web portal to all federal, state and local government web resources and services.